UKDDUSCC

Guest
Details From UKDD - Dnipropetrovsk Intl
To USCC - Balandino
Flight Number -
Tags Generated
Created
Modified
Stats Distance 1,057 nm / 1,957 km
Max Altitude 0 ft / 0 m
Waypoints 4
Social Downloads 0
Likes 0
Share VATSIM

Download

Looking for another format? Having issues loading an existing format? Contact us
Advertisement - Login to hide

Notes

Generated

Route

UKDD PEGAS LB USCC

ID Type Via Altitude Latitude Longitude Leg Dist Tot Dist Heading (true) Name
O UKDD APT - 0 ft / 0 m 48.35722˚ 35.08126˚ - 0 nm - -
PEGAS FIX - 0 ft / 0 m 52.58500˚ 47.02333˚ 521 nm 521 nm 56° / 66° -
LB NDB - 0 ft / 0 m 55.31667˚ 61.42167˚ 533 nm 1054 nm 66° / 78° CHELYABINSK NDB
O USCC APT - 0 ft / 0 m 55.30921˚ 61.47889˚ 2 nm 1056 nm 103° / 103° -

Altitude Profile

Advertisement - Login to hide

Weather


0- 5 10 15 20 25 30 35+ Temperature / ° C

Clouds and Precipitation
Forecast for 2018-05-22 00:00 UTC. Updated 3 hours ago

Ground ~20,000 ft ~40,000 ft Winds

UKDD

Details ICAO UKDD (DNK)
Name Dnipropetrovsk Intl
Region Ukraine
Timezone Europe/Kiev (UTC+3.0)
Stats Elevation 481 ft / 147 m (AMSL)
Location 48.357222° 35.100556°
Runways 1
Magnetic Variation 7.889° E

METAR

UKDD 220230Z 00000MPS 2000 BR NSC 10/09 Q1020 R08/090070 TEMPO 0300 FG

Decode

TAF

TAF UKDD 212305Z 2200/2224 VRB02MPS 2100 BR SCT030 TEMPO 2200/2206 0300 FG VV002 BECMG 2206/2208 01004MPS 9999 BKN030

Decode

Departure Runways

ID Width Length Bearing (true) Bearing (mag) Surface Threshold Offset Overrun Length
09 144 ft / 44 m 9,359 ft / 2,853 m 89.99° 82.10° Concrete 0 ft / 0 m 0 ft / 0 m
27 144 ft / 44 m 9,359 ft / 2,853 m 270.01° 262.12° Concrete 0 ft / 0 m 0 ft / 0 m

USCC

Details ICAO USCC (CEK)
Name BALANDINO
Region Russia
Timezone Asia/Yekaterinburg (UTC+5.0)
Stats Elevation 769 ft / 234 m (AMSL)
Location 55.305843° 61.503320°
Runways 1
Magnetic Variation 13.827° E

METAR

USCC 220230Z 30005MPS CAVOK 11/02 Q1022 R27/000060 NOSIG RMK QFE747

Decode

TAF

TAF USCC 220200Z 2203/2303 28008MPS 9999 SCT030CB TEMPO 2203/2215 26018MPS TEMPO 2215/2221 33010MPS

Decode

Destination Runways

ID Width Length Bearing (true) Bearing (mag) Surface Threshold Offset Overrun Length
09 197 ft / 60 m 10,443 ft / 3,183 m 103.59° 89.76° Concrete 0 ft / 0 m 230 ft / 70 m
27 197 ft / 60 m 10,443 ft / 3,183 m 283.63° 269.80° Concrete 0 ft / 0 m 230 ft / 70 m

Approach Navaids

Runway Type Ident Frequency Range Bearing (true) Bearing (mag) Slope Elevation
09 Localiser ILB 109.90 MHz 18 nm / 33 km 105.25° 91.42° - 769 ft / 234 m (AMSL)
09 Glidescope ILB 109.90 MHz 10 nm / 19 km 103.61° 89.79° 2.80° 769 ft / 234 m (AMSL)
27 Localiser IKS 108.70 MHz 18 nm / 33 km 282.19° 268.36° - 769 ft / 234 m (AMSL)
27 Glidescope IKS 108.70 MHz 10 nm / 19 km 283.61° 269.79° 2.80° 769 ft / 234 m (AMSL)